Time;durP1;ratioP1;P1;durP2;ratioP2;P2;SDS_P1;SDS_P2;PMS_P1;PMS_P2;Temp;Humidity;BMP_temperature;BMP_pressure;BME280_temperature;BME280_humidity;BME280_pressure;Samples;Min_cycle;Max_cycle;Signal;HPM_P1;HPM_P2
2023/06/17 04:05:58;;;;;;;2.77;2.40;;;13.80;99.90;;;;;;5271891;22;20485;-66
2023/06/17 04:08:24;;;;;;;4.53;2.70;;;14.00;99.90;;;;;;4995234;28;20416;-64
2023/06/17 04:10:49;;;;;;;2.53;2.40;;;14.00;99.90;;;;;;4995355;28;20178;-67
2023/06/17 04:13:15;;;;;;;3.53;3.27;;;14.10;99.90;;;;;;4995421;28;20193;-66
2023/06/17 04:15:42;;;;;;;2.83;2.63;;;14.30;99.90;;;;;;4994844;28;20679;-66
2023/06/17 04:18:07;;;;;;;2.30;2.20;;;14.50;99.90;;;;;;4995243;28;20325;-66
2023/06/17 04:20:36;;;;;;;3.00;2.70;;;14.60;99.90;;;;;;4995176;28;20444;-65
2023/06/17 04:23:01;;;;;;;2.93;2.83;;;14.70;99.90;;;;;;4995020;28;20178;-67
2023/06/17 04:25:27;;;;;;;3.57;2.50;;;14.80;99.90;;;;;;4994527;28;20433;-67
2023/06/17 04:27:56;;;;;;;3.10;2.90;;;14.90;99.90;;;;;;4994883;28;20237;-66
2023/06/17 04:30:21;;;;;;;2.93;2.73;;;15.00;99.90;;;;;;4993628;28;20641;-66
2023/06/17 04:32:47;;;;;;;3.33;3.03;;;15.10;99.90;;;;;;4995081;28;20480;-66
2023/06/17 04:35:12;;;;;;;2.70;2.50;;;15.10;99.90;;;;;;4993072;28;20751;-66
2023/06/17 04:37:40;;;;;;;3.30;3.00;;;15.30;99.90;;;;;;4994829;28;20206;-65
2023/06/17 04:40:10;;;;;;;3.30;3.07;;;15.30;99.90;;;;;;4995217;28;20536;-67
2023/06/17 04:42:36;;;;;;;2.83;2.70;;;15.40;99.90;;;;;;4995124;28;20410;-67
2023/06/17 04:45:02;;;;;;;2.90;2.70;;;15.50;99.90;;;;;;4994866;28;20500;-65
2023/06/17 04:47:28;;;;;;;4.83;3.07;;;15.60;99.90;;;;;;4994782;28;20454;-65
2023/06/17 04:49:54;;;;;;;3.40;2.90;;;15.70;99.90;;;;;;4995177;28;20472;-66
2023/06/17 04:52:20;;;;;;;3.03;2.83;;;15.90;99.90;;;;;;4994467;28;20768;-66
2023/06/17 04:54:48;;;;;;;3.70;3.40;;;16.00;99.90;;;;;;4994121;28;20430;-65
2023/06/17 04:57:14;;;;;;;3.97;3.20;;;16.10;99.90;;;;;;4994352;28;20167;-68
2023/06/17 04:59:40;;;;;;;4.70;3.40;;;16.20;99.90;;;;;;4994398;28;20560;-66
2023/06/17 05:02:05;;;;;;;3.80;3.50;;;16.20;99.90;;;;;;4994511;28;20642;-65
2023/06/17 05:04:31;;;;;;;3.97;3.67;;;16.20;99.90;;;;;;4993811;28;20544;-65
2023/06/17 05:06:57;;;;;;;3.63;3.33;;;16.30;99.90;;;;;;4994133;28;20313;-65
2023/06/17 05:09:22;;;;;;;3.23;2.93;;;16.30;99.90;;;;;;4994229;28;20168;-65
2023/06/17 05:11:49;;;;;;;3.87;3.57;;;16.40;99.90;;;;;;4994201;28;20243;-65
2023/06/17 05:14:14;;;;;;;4.80;3.57;;;16.50;99.90;;;;;;4993974;28;20535;-66
2023/06/17 05:16:40;;;;;;;4.53;3.23;;;16.70;99.90;;;;;;4994340;28;20407;-64
2023/06/17 05:19:05;;;;;;;3.90;3.70;;;16.70;99.90;;;;;;4994598;28;20172;-66
2023/06/17 05:21:31;;;;;;;4.10;3.80;;;16.80;99.90;;;;;;4994023;28;20168;-65
2023/06/17 05:23:57;;;;;;;3.53;3.33;;;17.00;99.90;;;;;;4994093;28;20172;-68
2023/06/17 05:26:22;;;;;;;3.87;3.57;;;17.10;99.90;;;;;;4993915;28;20217;-67
2023/06/17 05:28:48;;;;;;;4.07;3.63;;;17.30;99.90;;;;;;4994117;28;20505;-65
2023/06/17 05:31:13;;;;;;;4.00;3.60;;;17.40;99.90;;;;;;4994096;28;20200;-67
2023/06/17 05:33:39;;;;;;;3.03;2.83;;;17.50;99.90;;;;;;4993413;28;20339;-66
2023/06/17 05:36:05;;;;;;;3.77;3.47;;;17.80;99.90;;;;;;4993999;28;20598;-67
2023/06/17 05:38:30;;;;;;;3.00;2.80;;;18.30;99.90;;;;;;4994173;28;20171;-67
2023/06/17 05:40:57;;;;;;;4.47;4.03;;;18.70;99.90;;;;;;4994239;28;20179;-67
2023/06/17 05:43:27;;;;;;;3.07;2.77;;;19.20;98.30;;;;;;4993752;28;20178;-65
2023/06/17 05:45:52;;;;;;;3.10;2.90;;;19.50;96.50;;;;;;4993947;28;20418;-62
2023/06/17 05:48:18;;;;;;;3.67;3.37;;;19.70;95.90;;;;;;4993955;28;20742;-60
2023/06/17 05:50:44;;;;;;;3.00;2.80;;;19.80;94.70;;;;;;4994018;28;20634;-63
2023/06/17 05:53:09;;;;;;;3.37;3.07;;;19.80;94.80;;;;;;4993844;28;20174;-62
2023/06/17 05:55:35;;;;;;;3.00;2.80;;;19.80;95.00;;;;;;4993393;28;20191;-63
2023/06/17 05:58:00;;;;;;;3.27;3.07;;;19.80;95.00;;;;;;4993868;28;20660;-63
2023/06/17 06:00:26;;;;;;;3.53;3.23;;;19.80;95.10;;;;;;4995899;28;20186;-64
2023/06/17 06:02:51;;;;;;;4.20;3.90;;;19.80;95.40;;;;;;4997828;28;20238;-63
2023/06/17 06:05:18;;;;;;;3.07;2.77;;;19.80;95.30;;;;;;4997203;28;20652;-63
2023/06/17 06:07:43;;;;;;;3.60;3.30;;;19.90;95.20;;;;;;4998047;28;20218;-63
2023/06/17 06:10:10;;;;;;;3.47;3.20;;;20.10;94.70;;;;;;4997608;28;20753;-62
2023/06/17 06:12:37;;;;;;;3.07;2.87;;;20.20;94.50;;;;;;4997143;28;20594;-62
2023/06/17 06:15:03;;;;;;;3.40;3.10;;;20.40;94.00;;;;;;4995532;28;20820;-63
2023/06/17 06:17:29;;;;;;;3.57;3.37;;;20.60;93.40;;;;;;4978094;28;20415;-63
2023/06/17 06:19:56;;;;;;;3.97;3.67;;;20.70;93.10;;;;;;4977789;28;20464;-61
2023/06/17 06:22:21;;;;;;;2.90;2.70;;;20.80;93.10;;;;;;4977929;28;20463;-64
2023/06/17 06:24:47;;;;;;;3.43;3.20;;;20.90;93.00;;;;;;4977490;28;20521;-61
2023/06/17 06:27:13;;;;;;;3.00;2.80;;;21.00;92.90;;;;;;4977883;28;20204;-62
2023/06/17 06:29:38;;;;;;;3.33;3.03;;;21.00;92.30;;;;;;4977842;28;20176;-62
2023/06/17 06:32:04;;;;;;;4.60;3.07;;;21.20;92.10;;;;;;4978003;28;20527;-63
2023/06/17 06:34:30;;;;;;;3.73;3.53;;;21.30;91.60;;;;;;4977284;28;20219;-63
2023/06/17 06:36:58;;;;;;;3.57;3.37;;;21.40;91.10;;;;;;4977743;28;20833;-62
2023/06/17 06:39:24;;;;;;;3.03;2.83;;;21.50;91.30;;;;;;4977549;28;20419;-63
2023/06/17 06:41:49;;;;;;;5.13;4.60;;;21.60;90.50;;;;;;4980637;28;20446;-61
2023/06/17 06:44:16;;;;;;;3.90;3.60;;;21.80;90.00;;;;;;4994372;28;20506;-63
2023/06/17 06:46:41;;;;;;;3.17;2.93;;;21.80;88.70;;;;;;4997987;28;20240;-67
2023/06/17 06:49:07;;;;;;;6.77;3.20;;;21.90;89.30;;;;;;5000125;28;20435;-62
2023/06/17 06:51:33;;;;;;;3.17;2.90;;;22.00;88.70;;;;;;4999349;28;20242;-62
2023/06/17 06:53:58;;;;;;;2.87;2.67;;;22.10;87.90;;;;;;4999528;28;20811;-64
2023/06/17 06:56:25;;;;;;;3.80;3.47;;;22.20;88.10;;;;;;4994931;28;20207;-64
2023/06/17 06:58:51;;;;;;;3.93;3.53;;;22.30;88.70;;;;;;4990532;28;20319;-67
2023/06/17 07:01:16;;;;;;;3.33;3.10;;;22.30;89.00;;;;;;4978921;28;20430;-61
2023/06/17 07:03:42;;;;;;;3.27;3.07;;;22.50;87.00;;;;;;4991512;28;20257;-62
2023/06/17 07:06:08;;;;;;;5.87;3.20;;;22.60;87.90;;;;;;4996392;28;20226;-64
2023/06/17 07:08:35;;;;;;;2.90;2.70;;;22.80;86.40;;;;;;4996555;28;20169;-65
2023/06/17 07:11:00;;;;;;;3.83;3.53;;;22.90;85.30;;;;;;4994601;28;20569;-67
2023/06/17 07:13:26;;;;;;;3.40;3.10;;;23.10;83.60;;;;;;4992109;28;20426;-75
2023/06/17 07:15:52;;;;;;;3.77;3.47;;;23.20;83.40;;;;;;4995489;28;20211;-66
2023/06/17 07:18:18;;;;;;;6.60;4.50;;;23.40;82.20;;;;;;4996221;28;20388;-65
2023/06/17 07:20:43;;;;;;;2.57;2.47;;;23.60;82.00;;;;;;4996233;28;20537;-66
2023/06/17 07:23:09;;;;;;;3.70;3.50;;;23.80;80.60;;;;;;4996114;28;20182;-72
2023/06/17 07:25:36;;;;;;;3.80;3.30;;;24.00;79.80;;;;;;4995750;28;20680;-69
2023/06/17 07:28:02;;;;;;;3.30;3.10;;;24.10;78.80;;;;;;4993256;28;20211;-67
2023/06/17 07:30:29;;;;;;;4.53;4.13;;;24.30;78.60;;;;;;4994586;28;20518;-67
2023/06/17 07:32:55;;;;;;;3.97;3.57;;;24.70;79.60;;;;;;4996148;28;20411;-72
2023/06/17 07:35:21;;;;;;;4.13;3.83;;;25.40;76.70;;;;;;4995263;28;20462;-73
2023/06/17 07:37:46;;;;;;;3.70;3.40;;;26.20;76.40;;;;;;4995727;28;20882;-72
2023/06/17 07:40:13;;;;;;;3.83;3.53;;;27.20;72.50;;;;;;4995503;28;20276;-69
2023/06/17 07:42:38;;;;;;;4.17;3.87;;;28.20;67.70;;;;;;4992453;28;20691;-67
2023/06/17 07:45:05;;;;;;;4.70;4.20;;;29.00;66.00;;;;;;4995324;28;20484;-70
2023/06/17 07:47:30;;;;;;;4.87;4.43;;;30.00;63.60;;;;;;4994687;28;20211;-69
2023/06/17 07:49:56;;;;;;;4.90;4.50;;;31.00;59.60;;;;;;4995762;28;20969;-68
2023/06/17 07:52:22;;;;;;;4.13;3.83;;;31.70;57.80;;;;;;4995569;28;20171;-69
2023/06/17 07:54:47;;;;;;;5.93;5.40;;;32.30;57.90;;;;;;4991784;28;20200;-71
2023/06/17 07:57:14;;;;;;;4.30;4.00;;;33.30;55.20;;;;;;4985175;28;20185;-72
2023/06/17 07:59:41;;;;;;;5.00;4.67;;;34.50;53.80;;;;;;4991823;28;20270;-70
2023/06/17 08:02:07;;;;;;;4.57;4.20;;;35.60;52.00;;;;;;4991668;28;21147;-71
2023/06/17 08:04:33;;;;;;;4.37;3.97;;;36.20;51.00;;;;;;4972321;28;21018;-72
2023/06/17 08:06:58;;;;;;;4.00;3.80;;;36.80;50.10;;;;;;4975636;28;20550;-67
2023/06/17 08:09:24;;;;;;;5.23;4.83;;;37.10;47.80;;;;;;4987747;28;20214;-67
2023/06/17 08:11:50;;;;;;;4.80;4.50;;;37.00;48.10;;;;;;4995219;28;20190;-67
2023/06/17 08:14:16;;;;;;;4.57;4.27;;;36.80;47.30;;;;;;4994795;28;20171;-66
2023/06/17 08:16:45;;;;;;;5.23;4.87;;;36.80;47.10;;;;;;4995572;28;20186;-68
2023/06/17 08:19:11;;;;;;;4.37;4.07;;;36.30;47.10;;;;;;4982760;28;20434;-69
2023/06/17 08:21:37;;;;;;;4.70;4.40;;;36.50;47.20;;;;;;4993747;28;20439;-67
2023/06/17 08:24:19;;;;;;;4.40;4.10;;;36.90;46.30;;;;;;4993230;28;20446;-67
2023/06/17 08:26:45;;;;;;;4.20;3.80;;;37.10;45.80;;;;;;4994605;28;20205;-65
2023/06/17 08:29:13;;;;;;;4.30;4.00;;;37.30;46.30;;;;;;4994346;28;20492;-69
2023/06/17 08:31:40;;;;;;;4.37;4.07;;;37.40;45.70;;;;;;4994641;28;20175;-70
2023/06/17 08:34:05;;;;;;;4.53;4.10;;;37.00;45.50;;;;;;4994089;28;20427;-67
2023/06/17 08:36:31;;;;;;;4.37;4.00;;;37.20;45.70;;;;;;4994387;28;20493;-68
2023/06/17 08:38:57;;;;;;;4.07;3.87;;;37.60;45.30;;;;;;4991901;28;20262;-66
2023/06/17 08:41:22;;;;;;;4.37;4.07;;;37.80;44.60;;;;;;4974874;28;20212;-72
2023/06/17 08:43:51;;;;;;;3.63;3.43;;;37.70;43.90;;;;;;4974811;28;20239;-68
2023/06/17 08:46:19;;;;;;;3.53;3.33;;;37.40;44.30;;;;;;4983915;28;20207;-70
2023/06/17 08:48:45;;;;;;;3.90;3.70;;;37.60;43.40;;;;;;4976613;28;20412;-66
2023/06/17 08:51:12;;;;;;;3.90;3.63;;;37.60;43.60;;;;;;4974718;28;20408;-74
2023/06/17 08:53:39;;;;;;;4.37;4.17;;;37.80;43.30;;;;;;4974482;28;20439;-73
2023/06/17 08:56:05;;;;;;;4.50;4.10;;;37.60;42.80;;;;;;4974535;28;20854;-65
2023/06/17 08:58:31;;;;;;;3.83;3.53;;;37.50;43.20;;;;;;4975107;28;20751;-65
2023/06/17 09:00:58;;;;;;;3.73;3.53;;;37.60;43.30;;;;;;4982023;28;20431;-69
2023/06/17 09:03:25;;;;;;;3.90;3.70;;;37.50;43.60;;;;;;4994061;28;20167;-68
2023/06/17 09:05:53;;;;;;;4.00;3.70;;;37.50;43.20;;;;;;4993786;28;20458;-67
2023/06/17 09:08:20;;;;;;;4.07;3.83;;;37.70;42.70;;;;;;4993967;28;20418;-67
2023/06/17 09:10:46;;;;;;;4.17;3.87;;;37.90;42.70;;;;;;4979352;28;20423;-67
2023/06/17 09:13:11;;;;;;;3.63;3.43;;;38.20;41.50;;;;;;4974364;28;20416;-66
2023/06/17 09:15:40;;;;;;;3.40;3.20;;;38.50;41.90;;;;;;4982203;28;20202;-72
2023/06/17 09:18:07;;;;;;;3.67;3.47;;;38.80;41.60;;;;;;4994072;28;20554;-75
2023/06/17 09:20:33;;;;;;;3.90;3.70;;;38.80;41.10;;;;;;4994065;28;20410;-67
2023/06/17 09:22:59;;;;;;;3.77;3.57;;;38.70;40.90;;;;;;4994122;28;20410;-69
2023/06/17 09:25:25;;;;;;;4.40;4.10;;;38.80;41.60;;;;;;4993489;28;20434;-64
2023/06/17 09:27:53;;;;;;;3.80;3.60;;;38.60;41.30;;;;;;4994053;28;20226;-71
2023/06/17 09:30:20;;;;;;;3.20;3.03;;;38.30;40.20;;;;;;4982454;28;20192;-68
2023/06/17 09:32:49;;;;;;;4.43;4.13;;;38.30;40.40;;;;;;4983618;28;20975;-65
2023/06/17 09:35:16;;;;;;;3.50;3.30;;;38.40;41.50;;;;;;4978927;28;20810;-65
2023/06/17 09:37:49;;;;;;;3.37;3.17;;;38.40;39.30;;;;;;4972275;28;20865;-66
2023/06/17 09:40:15;;;;;;;3.53;3.33;;;37.80;40.40;;;;;;4974274;28;20414;-65
2023/06/17 09:42:44;;;;;;;3.90;3.70;;;37.90;41.60;;;;;;4974222;28;20408;-65
2023/06/17 09:45:12;;;;;;;3.73;3.43;;;38.20;40.10;;;;;;4982143;28;20446;-65
2023/06/17 09:47:39;;;;;;;3.70;3.43;;;38.30;39.10;;;;;;4974127;28;20451;-64
2023/06/17 09:50:08;;;;;;;6.13;4.57;;;38.30;39.40;;;;;;4973034;28;20390;-64
2023/06/17 09:52:36;;;;;;;3.30;3.10;;;38.00;39.50;;;;;;4974043;28;20408;-64
2023/06/17 09:55:05;;;;;;;4.33;4.03;;;37.80;38.90;;;;;;4973218;28;20937;-63
2023/06/17 09:57:31;;;;;;;4.80;4.50;;;37.60;39.30;;;;;;4974117;28;20459;-66
2023/06/17 10:00:00;;;;;;;3.67;3.47;;;37.50;39.80;;;;;;4993029;28;20434;-64
2023/06/17 10:02:26;;;;;;;4.13;3.83;;;38.00;39.80;;;;;;4993231;28;20175;-61
2023/06/17 10:04:52;;;;;;;4.13;3.87;;;38.40;38.70;;;;;;4992899;28;20522;-62
2023/06/17 10:07:21;;;;;;;3.40;3.20;;;38.70;38.90;;;;;;4989750;28;20958;-62
2023/06/17 10:09:49;;;;;;;3.50;3.30;;;38.80;39.30;;;;;;4989993;28;20533;-61
2023/06/17 10:12:15;;;;;;;3.90;3.70;;;38.40;39.50;;;;;;4993493;28;20414;-62
2023/06/17 10:14:42;;;;;;;3.73;3.43;;;38.00;39.20;;;;;;4993146;28;20973;-62
2023/06/17 10:17:09;;;;;;;4.00;3.80;;;37.10;41.40;;;;;;4993240;28;20455;-63
2023/06/17 10:19:37;;;;;;;3.90;3.70;;;36.60;40.30;;;;;;4993387;28;20392;-63
2023/06/17 10:22:08;;;;;;;4.20;3.90;;;36.40;39.80;;;;;;4993654;28;20758;-61
2023/06/17 10:24:34;;;;;;;4.00;3.80;;;35.90;40.20;;;;;;4992899;28;20454;-64
2023/06/17 10:27:05;;;;;;;5.20;3.90;;;35.80;40.90;;;;;;4993107;28;20804;-64
2023/06/17 10:29:32;;;;;;;3.70;3.40;;;36.10;42.70;;;;;;4993072;28;20422;-65
2023/06/17 10:32:29;;;;;;;5.90;3.70;;;36.20;41.10;;;;;;4993240;28;20421;-63
2023/06/17 10:35:06;;;;;;;4.03;3.70;;;36.20;41.70;;;;;;4992090;28;20524;-64
2023/06/17 10:37:45;;;;;;;3.70;3.50;;;36.10;41.40;;;;;;4993147;28;20460;-64
2023/06/17 10:40:23;;;;;;;3.67;3.40;;;36.00;40.40;;;;;;4993221;28;20418;-62
2023/06/17 10:42:54;;;;;;;3.73;3.40;;;36.20;40.60;;;;;;4993316;28;20444;-63
2023/06/17 10:45:20;;;;;;;3.67;3.37;;;36.40;41.20;;;;;;4993275;28;20427;-63
2023/06/17 10:47:45;;;;;;;3.80;3.50;;;36.50;39.90;;;;;;4996934;28;20921;-64
2023/06/17 10:50:14;;;;;;;3.80;3.60;;;36.50;40.30;;;;;;4997008;28;20705;-62
2023/06/17 10:52:40;;;;;;;3.97;3.67;;;36.70;39.80;;;;;;4996471;28;20190;-65
2023/06/17 10:55:05;;;;;;;3.70;3.50;;;36.30;39.80;;;;;;4996293;28;20442;-63
2023/06/17 10:57:35;;;;;;;6.33;3.80;;;35.60;40.00;;;;;;4996633;28;20204;-64
2023/06/17 11:00:10;;;;;;;3.73;3.43;;;35.30;42.20;;;;;;4996607;28;20171;-63
2023/06/17 11:02:37;;;;;;;3.70;3.40;;;34.90;42.00;;;;;;4996707;28;20422;-67
2023/06/17 11:05:03;;;;;;;4.20;3.87;;;34.90;42.30;;;;;;4996132;28;20434;-63
2023/06/17 11:07:29;;;;;;;3.20;3.00;;;34.80;42.10;;;;;;4995781;28;20421;-65
2023/06/17 11:09:55;;;;;;;4.20;3.83;;;34.60;40.90;;;;;;4996666;28;20418;-62
2023/06/17 11:12:21;;;;;;;4.50;4.10;;;34.70;41.60;;;;;;4996604;28;20270;-62
2023/06/17 11:14:46;;;;;;;4.30;4.00;;;34.50;42.20;;;;;;4995972;28;20233;-67
2023/06/17 11:17:12;;;;;;;3.07;2.87;;;34.00;42.60;;;;;;4996375;28;20270;-62
2023/06/17 11:19:37;;;;;;;3.70;3.40;;;33.40;42.20;;;;;;4996407;28;20251;-63
2023/06/17 11:22:03;;;;;;;4.90;3.57;;;33.00;43.00;;;;;;4996378;28;20267;-64
2023/06/17 11:24:32;;;;;;;3.13;2.90;;;32.60;41.60;;;;;;4995891;28;20238;-63
2023/06/17 11:26:59;;;;;;;3.50;3.30;;;32.20;41.10;;;;;;4996781;28;20222;-62
2023/06/17 11:29:28;;;;;;;3.20;3.00;;;31.60;44.10;;;;;;4995944;28;20450;-60
2023/06/17 11:31:57;;;;;;;4.43;3.97;;;31.20;44.80;;;;;;4990089;28;20871;-60
2023/06/17 11:34:23;;;;;;;3.73;3.43;;;30.90;46.50;;;;;;4989119;28;20435;-62
2023/06/17 11:36:53;;;;;;;4.00;3.70;;;30.60;45.00;;;;;;4995722;28;20495;-61
2023/06/17 11:39:22;;;;;;;3.63;3.37;;;30.20;45.10;;;;;;4995844;28;20230;-62
2023/06/17 11:41:52;;;;;;;3.10;2.90;;;29.90;46.10;;;;;;4996016;28;20785;-63
2023/06/17 11:44:19;;;;;;;3.40;3.20;;;29.70;46.60;;;;;;4995128;28;20442;-63
2023/06/17 11:46:49;;;;;;;3.03;2.83;;;29.50;46.60;;;;;;4995588;28;20462;-60
2023/06/17 11:49:15;;;;;;;3.63;3.33;;;29.20;46.80;;;;;;4995928;28;20414;-63
2023/06/17 11:51:50;;;;;;;3.77;3.47;;;28.90;47.40;;;;;;4995682;28;20457;-61
2023/06/17 11:54:18;;;;;;;4.10;3.70;;;28.70;48.90;;;;;;4995005;28;20172;-62
2023/06/17 11:56:44;;;;;;;5.20;3.87;;;28.70;48.90;;;;;;4995061;28;20465;-61
2023/06/17 11:59:11;;;;;;;3.07;2.83;;;28.70;48.30;;;;;;4993535;28;20431;-63
2023/06/17 12:01:37;;;;;;;4.40;3.43;;;28.80;47.60;;;;;;4995591;28;20418;-63
2023/06/17 12:04:03;;;;;;;5.90;3.27;;;29.00;49.40;;;;;;4995165;28;20389;-62
2023/06/17 12:06:29;;;;;;;8.30;4.20;;;29.10;48.30;;;;;;4994505;28;20210;-61
2023/06/17 12:08:56;;;;;;;3.33;2.90;;;29.20;46.50;;;;;;4993329;28;20422;-63
2023/06/17 12:11:27;;;;;;;3.07;2.80;;;29.30;47.30;;;;;;4992875;28;20573;-62
2023/06/17 12:13:57;;;;;;;2.80;2.60;;;29.40;46.60;;;;;;4992695;28;20518;-62
2023/06/17 12:16:33;;;;;;;2.33;2.13;;;29.60;46.50;;;;;;4993374;28;20545;-61
2023/06/17 12:19:00;;;;;;;4.80;2.60;;;29.70;46.80;;;;;;4993794;28;20485;-62
2023/06/17 12:21:26;;;;;;;2.60;2.40;;;30.00;47.40;;;;;;4993747;28;20821;-62
2023/06/17 12:23:54;;;;;;;3.27;3.00;;;30.10;44.80;;;;;;4994470;28;20419;-61
2023/06/17 12:26:20;;;;;;;3.17;2.93;;;30.10;45.80;;;;;;4995060;28;20423;-62
2023/06/17 12:28:46;;;;;;;2.50;2.40;;;30.10;45.30;;;;;;4995126;28;20522;-62
2023/06/17 12:31:12;;;;;;;2.70;2.50;;;30.00;44.10;;;;;;4994789;28;20400;-61
2023/06/17 12:33:39;;;;;;;3.90;3.07;;;30.10;45.10;;;;;;4994609;28;20530;-61
2023/06/17 12:36:07;;;;;;;2.43;2.33;;;30.10;43.80;;;;;;4994839;28;20444;-64
2023/06/17 12:38:33;;;;;;;2.90;2.70;;;30.00;43.40;;;;;;4994572;28;20489;-61
2023/06/17 12:41:00;;;;;;;4.10;3.33;;;30.00;43.20;;;;;;4993774;28;20473;-62
2023/06/17 12:43:28;;;;;;;3.17;2.50;;;29.90;44.30;;;;;;4994087;28;20415;-61
2023/06/17 12:45:54;;;;;;;3.10;2.90;;;29.90;44.70;;;;;;4994631;28;20756;-63
2023/06/17 12:48:20;;;;;;;3.30;3.00;;;29.90;45.20;;;;;;4994646;28;20763;-59
2023/06/17 12:50:46;;;;;;;3.00;2.80;;;29.80;44.30;;;;;;4994727;28;20836;-63
2023/06/17 12:53:13;;;;;;;2.90;2.70;;;29.70;43.30;;;;;;4994413;28;20427;-60
2023/06/17 12:55:39;;;;;;;3.07;2.80;;;29.60;43.60;;;;;;4994021;28;20297;-62
2023/06/17 12:58:04;;;;;;;3.23;2.93;;;29.40;42.90;;;;;;4994397;28;20488;-61
2023/06/17 13:00:30;;;;;;;2.70;2.50;;;29.30;41.80;;;;;;4994533;28;20508;-61
2023/06/17 13:02:56;;;;;;;4.10;2.60;;;29.10;41.90;;;;;;4994073;28;20183;-64
2023/06/17 13:05:22;;;;;;;2.80;2.60;;;29.00;41.80;;;;;;4993811;28;20446;-63
2023/06/17 13:07:47;;;;;;;2.50;2.30;;;28.80;43.80;;;;;;4994069;28;20201;-63
2023/06/17 13:10:13;;;;;;;2.47;2.27;;;28.80;44.20;;;;;;4994282;28;20176;-59
2023/06/17 13:12:39;;;;;;;2.47;2.27;;;28.90;44.90;;;;;;4994424;28;20179;-60
2023/06/17 13:15:05;;;;;;;2.43;2.23;;;29.00;45.20;;;;;;4993945;28;20696;-60
2023/06/17 13:17:31;;;;;;;2.20;2.00;;;29.10;44.40;;;;;;4993990;28;20211;-63
2023/06/17 13:19:56;;;;;;;2.87;2.30;;;29.20;44.70;;;;;;4994283;28;20760;-61
2023/06/17 13:22:22;;;;;;;2.20;2.00;;;29.20;44.00;;;;;;4994205;28;20176;-61
2023/06/17 13:24:48;;;;;;;3.30;3.00;;;29.20;42.50;;;;;;4993605;28;20191;-60
2023/06/17 13:27:18;;;;;;;2.80;2.60;;;29.10;43.40;;;;;;4994256;28;20181;-62
2023/06/17 13:29:46;;;;;;;2.70;2.50;;;28.90;43.50;;;;;;4994064;28;20179;-61
2023/06/17 13:32:12;;;;;;;3.27;2.93;;;29.00;44.60;;;;;;4993934;28;20446;-62
2023/06/17 13:34:38;;;;;;;3.03;2.83;;;29.10;44.40;;;;;;4993564;28;20426;-59
2023/06/17 13:37:06;;;;;;;2.30;2.10;;;29.10;44.00;;;;;;4993772;28;20354;-61
2023/06/17 13:39:32;;;;;;;2.30;2.10;;;29.20;44.10;;;;;;4993764;28;20175;-62
2023/06/17 13:41:57;;;;;;;2.27;2.17;;;29.20;42.50;;;;;;4993932;28;20883;-61
2023/06/17 13:44:23;;;;;;;3.50;2.77;;;29.10;43.50;;;;;;4993585;28;20191;-62
2023/06/17 13:46:49;;;;;;;2.43;2.23;;;29.00;42.80;;;;;;4993711;28;20182;-61
2023/06/17 13:49:14;;;;;;;2.93;2.70;;;29.00;43.70;;;;;;4994003;28;20186;-62
2023/06/17 13:51:40;;;;;;;2.83;2.63;;;28.90;43.40;;;;;;4989558;28;20225;-61
2023/06/17 13:54:05;;;;;;;3.00;2.80;;;28.80;42.20;;;;;;4989392;28;20188;-64
2023/06/17 13:56:31;;;;;;;2.63;2.43;;;28.60;42.60;;;;;;4986947;28;20682;-61
2023/06/17 13:58:57;;;;;;;2.50;2.30;;;28.50;42.60;;;;;;4983312;28;20253;-62
2023/06/17 14:01:23;;;;;;;2.77;2.57;;;28.50;43.00;;;;;;4983137;28;20249;-62
2023/06/17 14:03:49;;;;;;;3.07;2.73;;;28.40;42.00;;;;;;4984168;28;20172;-60
2023/06/17 14:06:15;;;;;;;2.43;2.23;;;28.40;42.90;;;;;;4982574;28;20439;-61
2023/06/17 14:08:40;;;;;;;2.87;2.60;;;28.30;43.20;;;;;;4985814;28;20429;-60
2023/06/17 14:11:07;;;;;;;3.93;2.67;;;28.20;42.60;;;;;;4984229;28;20174;-62
2023/06/17 14:13:33;;;;;;;2.60;2.40;;;28.20;44.60;;;;;;4982972;28;20648;-62
2023/06/17 14:15:59;;;;;;;6.37;3.50;;;28.30;45.10;;;;;;4984908;28;20439;-62
2023/06/17 14:18:25;;;;;;;2.40;2.30;;;28.40;43.70;;;;;;4982856;28;20484;-59
2023/06/17 14:20:50;;;;;;;3.17;2.97;;;28.40;45.40;;;;;;4985433;28;20928;-62
2023/06/17 14:23:16;;;;;;;2.80;2.60;;;28.40;43.40;;;;;;4986357;28;20182;-60
2023/06/17 14:25:41;;;;;;;3.23;3.00;;;28.50;43.80;;;;;;4986634;28;20284;-64
2023/06/17 14:28:07;;;;;;;2.90;2.50;;;28.40;44.10;;;;;;4987649;28;20710;-61
2023/06/17 14:30:32;;;;;;;3.10;2.90;;;28.30;43.10;;;;;;4988645;28;20201;-62
2023/06/17 14:32:58;;;;;;;2.83;2.60;;;28.30;44.80;;;;;;4987310;28;20205;-61
2023/06/17 14:35:24;;;;;;;2.87;2.63;;;28.30;44.60;;;;;;4980079;28;20202;-61
2023/06/17 14:37:49;;;;;;;3.37;3.07;;;28.30;44.10;;;;;;4977435;28;20671;-61
2023/06/17 14:40:16;;;;;;;2.87;2.67;;;28.30;43.70;;;;;;4977677;28;20181;-61
2023/06/17 14:42:42;;;;;;;2.70;2.50;;;28.30;43.00;;;;;;4977727;28;20179;-63
2023/06/17 14:45:10;;;;;;;3.07;2.87;;;28.20;43.80;;;;;;4995998;28;20490;-61
2023/06/17 14:47:36;;;;;;;2.93;2.33;;;28.10;43.00;;;;;;4988178;28;20257;-64
2023/06/17 14:50:03;;;;;;;2.93;2.57;;;28.00;43.70;;;;;;4985574;28;20471;-61
2023/06/17 14:52:28;;;;;;;2.30;2.20;;;28.00;43.80;;;;;;4986899;28;20453;-62
2023/06/17 14:54:54;;;;;;;3.30;3.00;;;28.00;44.80;;;;;;4989223;28;20462;-63
2023/06/17 14:57:21;;;;;;;2.90;2.67;;;28.00;44.80;;;;;;4985681;28;20244;-63
2023/06/17 14:59:47;;;;;;;3.63;3.07;;;28.00;44.00;;;;;;4988101;28;20516;-62
2023/06/17 15:02:43;;;;;;;2.77;2.57;;;28.00;45.10;;;;;;4986230;28;20453;-63
2023/06/17 15:05:09;;;;;;;2.53;2.33;;;28.00;43.90;;;;;;4984501;28;20192;-61
2023/06/17 15:07:34;;;;;;;2.50;2.30;;;28.00;43.80;;;;;;4982834;28;20823;-63
2023/06/17 15:10:00;;;;;;;2.73;2.53;;;28.00;44.20;;;;;;4995412;28;20177;-60
2023/06/17 15:12:26;;;;;;;4.10;2.70;;;28.00;43.80;;;;;;4980890;28;20184;-63
2023/06/17 15:14:53;;;;;;;3.67;3.37;;;27.90;43.30;;;;;;4984865;28;20196;-62
2023/06/17 15:17:19;;;;;;;3.40;3.10;;;27.90;43.50;;;;;;5000706;28;20280;-61
2023/06/17 15:19:45;;;;;;;3.40;3.10;;;27.80;43.60;;;;;;5002523;28;20946;-64
2023/06/17 15:22:12;;;;;;;3.10;2.80;;;27.80;44.50;;;;;;5002967;28;20412;-65
2023/06/17 15:24:38;;;;;;;3.53;2.50;;;27.80;44.20;;;;;;4990336;28;20448;-65
2023/06/17 15:27:05;;;;;;;3.17;2.93;;;27.80;44.60;;;;;;4982435;28;20576;-65
2023/06/17 15:29:31;;;;;;;3.23;2.60;;;27.70;45.30;;;;;;4982712;28;20179;-63
2023/06/17 15:31:56;;;;;;;3.33;2.90;;;27.80;44.80;;;;;;4994356;28;20777;-65
2023/06/17 15:34:22;;;;;;;3.10;2.80;;;27.80;44.70;;;;;;4996666;28;20724;-63
2023/06/17 15:36:48;;;;;;;3.00;2.70;;;27.70;44.70;;;;;;4996144;28;20217;-64
2023/06/17 15:39:19;;;;;;;2.77;2.60;;;27.70;44.50;;;;;;4995983;28;20649;-65
2023/06/17 15:41:50;;;;;;;3.03;2.80;;;27.70;45.10;;;;;;4995982;28;20175;-61
2023/06/17 15:44:16;;;;;;;2.60;2.50;;;27.70;45.30;;;;;;4995357;28;20478;-65
2023/06/17 15:46:42;;;;;;;2.70;2.50;;;27.60;45.40;;;;;;4995829;28;20381;-64
2023/06/17 15:49:08;;;;;;;3.37;3.07;;;27.60;45.00;;;;;;4995972;28;20523;-65
2023/06/17 15:51:35;;;;;;;4.80;3.20;;;27.60;45.40;;;;;;4995730;28;20393;-64
2023/06/17 15:54:01;;;;;;;3.43;3.13;;;27.50;45.60;;;;;;4995305;28;20416;-64
2023/06/17 15:56:27;;;;;;;3.50;3.20;;;27.50;45.70;;;;;;4995819;28;20761;-64
2023/06/17 15:58:53;;;;;;;2.30;2.20;;;27.40;46.10;;;;;;4995305;28;20423;-66
2023/06/17 16:01:19;;;;;;;3.30;3.03;;;27.30;46.30;;;;;;4995655;28;20507;-63
2023/06/17 16:03:45;;;;;;;2.77;2.57;;;27.20;46.00;;;;;;4995209;28;20450;-66
2023/06/17 16:06:11;;;;;;;2.27;2.10;;;27.20;46.40;;;;;;4995117;28;20452;-64
2023/06/17 16:08:37;;;;;;;4.13;2.83;;;27.20;45.70;;;;;;4995569;28;20187;-64
2023/06/17 16:11:03;;;;;;;2.60;2.40;;;27.20;46.00;;;;;;4995019;28;20504;-65
2023/06/17 16:13:29;;;;;;;3.07;2.83;;;27.20;46.30;;;;;;4994170;28;20444;-65
2023/06/17 16:15:55;;;;;;;2.60;2.40;;;27.20;46.20;;;;;;4994784;28;20497;-64
2023/06/17 16:18:21;;;;;;;3.10;2.90;;;27.20;47.10;;;;;;4994810;28;20968;-62
2023/06/17 16:20:47;;;;;;;2.87;2.67;;;27.10;47.30;;;;;;4995029;28;20179;-64
2023/06/17 16:23:13;;;;;;;2.87;2.67;;;27.10;47.10;;;;;;4994863;28;20255;-65
2023/06/17 16:25:39;;;;;;;3.20;2.90;;;27.10;47.70;;;;;;4994016;28;20199;-66
2023/06/17 16:28:05;;;;;;;3.10;2.80;;;27.10;46.70;;;;;;4993357;28;20430;-65
2023/06/17 16:30:33;;;;;;;4.23;2.70;;;27.00;46.80;;;;;;4994823;28;20420;-66
2023/06/17 16:32:59;;;;;;;3.57;3.30;;;27.00;47.00;;;;;;4995010;28;20423;-63
2023/06/17 16:35:25;;;;;;;4.10;3.20;;;27.00;46.80;;;;;;4994566;28;20793;-66
2023/06/17 16:37:51;;;;;;;2.43;2.33;;;27.00;46.70;;;;;;4993382;28;20478;-64
2023/06/17 16:40:16;;;;;;;3.30;3.10;;;27.00;47.10;;;;;;4994502;28;20179;-68
2023/06/17 16:42:42;;;;;;;2.83;2.57;;;27.00;47.40;;;;;;4994603;28;20179;-68
2023/06/17 16:45:08;;;;;;;3.27;2.97;;;27.00;47.10;;;;;;4993820;28;20246;-61
2023/06/17 16:47:33;;;;;;;3.93;3.00;;;27.00;46.80;;;;;;4994728;28;20179;-68
2023/06/17 16:49:59;;;;;;;3.33;3.10;;;26.90;47.10;;;;;;4994423;28;20404;-67